Time;durP1;ratioP1;P1;durP2;ratioP2;P2;SDS_P1;SDS_P2;PMS_P1;PMS_P2;Temp;Humidity;BMP_temperature;BMP_pressure;BME280_temperature;BME280_humidity;BME280_pressure;Samples;Min_cycle;Max_cycle;Signal;HPM_P1;HPM_P2
2021/11/28 07:01:36;;;;;;;12.75;5.57;;;4.90;99.90;;;;;;6093813;23;20104;-80
2021/11/28 07:04:04;;;;;;;15.10;9.13;;;4.80;99.90;;;;;;6122727;23;20029;-80
2021/11/28 07:06:31;;;;;;;13.90;6.75;;;4.80;99.90;;;;;;6123284;23;20049;-79
2021/11/28 07:08:58;;;;;;;24.70;10.70;;;4.90;99.90;;;;;;6123186;23;20108;-80
2021/11/28 07:11:24;;;;;;;9.25;1.45;;;4.90;99.90;;;;;;6121827;23;20081;-80
2021/11/28 07:13:53;;;;;;;9.82;2.90;;;4.90;99.90;;;;;;6123154;23;20022;-80
2021/11/28 07:16:20;;;;;;;11.43;6.13;;;4.90;99.90;;;;;;6119769;23;20025;-79
2021/11/28 07:18:48;;;;;;;16.60;7.80;;;4.90;99.90;;;;;;6120622;23;20022;-80
2021/11/28 07:21:16;;;;;;;15.02;6.82;;;4.90;99.90;;;;;;6120834;23;20369;-79
2021/11/28 07:23:49;;;;;;;24.67;2.80;;;4.90;99.90;;;;;;6121239;23;20018;-79
2021/11/28 07:26:17;;;;;;;29.33;13.85;;;4.90;99.90;;;;;;6118723;23;20037;-80
2021/11/28 07:28:45;;;;;;;22.60;9.30;;;4.80;99.90;;;;;;6120990;23;20025;-79
2021/11/28 07:31:13;;;;;;;16.83;5.30;;;4.80;99.90;;;;;;6094222;23;20022;-80
2021/11/28 07:33:40;;;;;;;14.88;4.00;;;4.90;99.90;;;;;;6119892;23;20085;-80
2021/11/28 07:36:08;;;;;;;11.07;1.65;;;4.80;99.90;;;;;;6118960;23;20569;-80
2021/11/28 07:38:35;;;;;;;9.65;4.82;;;4.80;99.90;;;;;;6120462;23;20085;-80
2021/11/28 07:41:03;;;;;;;12.98;3.08;;;4.80;99.90;;;;;;6120337;23;20510;-80
2021/11/28 07:43:31;;;;;;;10.03;1.70;;;4.90;99.90;;;;;;6118882;23;20092;-80
2021/11/28 07:46:00;;;;;;;11.73;1.65;;;4.80;99.90;;;;;;6119726;23;20249;-79
2021/11/28 07:48:28;;;;;;;6.25;1.30;;;4.80;99.90;;;;;;6118806;23;20053;-80
2021/11/28 07:50:55;;;;;;;9.45;1.40;;;4.90;99.90;;;;;;6118450;23;20018;-80
2021/11/28 07:53:22;;;;;;;12.52;1.70;;;4.90;99.90;;;;;;6117381;23;20029;-81
2021/11/28 07:55:49;;;;;;;10.85;1.55;;;4.90;99.90;;;;;;6119553;23;20328;-81
2021/11/28 07:58:16;;;;;;;10.02;1.40;;;4.90;99.90;;;;;;6118246;23;20025;-80
2021/11/28 08:00:43;;;;;;;10.50;1.30;;;4.90;99.90;;;;;;6124982;23;20084;-78
2021/11/28 08:03:11;;;;;;;7.13;1.30;;;5.00;99.90;;;;;;6122503;23;20049;-80
2021/11/28 08:05:39;;;;;;;6.65;1.33;;;4.90;99.90;;;;;;6148291;23;20029;-77
2021/11/28 08:08:06;;;;;;;6.10;1.40;;;4.90;99.90;;;;;;6122198;23;20513;-80
2021/11/28 08:10:34;;;;;;;8.90;1.65;;;4.90;99.90;;;;;;6123156;23;20460;-81
2021/11/28 08:13:00;;;;;;;10.60;1.67;;;4.90;99.90;;;;;;6149089;23;20124;-80
2021/11/28 08:15:28;;;;;;;6.68;1.00;;;4.90;99.90;;;;;;6147732;23;20404;-81
2021/11/28 08:17:55;;;;;;;12.07;3.55;;;4.90;99.90;;;;;;6122989;23;20400;-82
2021/11/28 08:20:23;;;;;;;10.27;1.73;;;5.00;99.90;;;;;;6148193;23;20420;-81
2021/11/28 08:22:50;;;;;;;11.38;3.03;;;5.00;99.90;;;;;;6149022;23;20058;-81
2021/11/28 08:25:18;;;;;;;24.42;8.73;;;5.00;99.90;;;;;;6148281;23;20029;-81
2021/11/28 08:27:46;;;;;;;50.80;19.00;;;5.00;99.90;;;;;;6149127;23;20025;-81
2021/11/28 08:30:16;;;;;;;22.35;8.60;;;5.00;99.90;;;;;;6148338;23;20476;-81
2021/11/28 08:32:45;;;;;;;39.85;16.85;;;5.00;99.90;;;;;;6148262;23;20026;-79
2021/11/28 08:35:12;;;;;;;79.07;29.63;;;5.00;99.90;;;;;;6147555;23;20091;-79
2021/11/28 08:37:39;;;;;;;91.38;38.47;;;5.00;99.90;;;;;;6148543;23;20021;-80
2021/11/28 08:40:09;;;;;;;18.90;7.28;;;5.00;99.90;;;;;;6147906;23;20422;-79
2021/11/28 08:42:36;;;;;;;12.07;4.38;;;5.00;99.90;;;;;;6148279;23;20400;-80
2021/11/28 08:45:06;;;;;;;23.80;12.45;;;5.00;99.90;;;;;;6148459;23;20040;-80
2021/11/28 08:47:33;;;;;;;27.05;16.25;;;5.00;99.90;;;;;;6147646;23;20017;-79
2021/11/28 08:50:03;;;;;;;33.17;21.67;;;5.00;99.90;;;;;;6148518;23;20230;-79
2021/11/28 08:52:30;;;;;;;8.23;1.63;;;5.00;99.90;;;;;;6147608;23;20091;-79
2021/11/28 08:55:05;;;;;;;9.77;1.60;;;5.00;99.90;;;;;;6148386;23;20025;-79
2021/11/28 08:57:32;;;;;;;14.35;2.50;;;5.10;99.90;;;;;;6147997;23;20018;-81
2021/11/28 08:59:59;;;;;;;6.85;1.20;;;5.10;99.90;;;;;;6122515;23;20491;-80
2021/11/28 09:02:25;;;;;;;9.30;2.17;;;5.20;99.90;;;;;;6147902;23;20021;-81
2021/11/28 09:04:52;;;;;;;11.70;1.30;;;5.20;99.90;;;;;;6148362;23;20028;-80
2021/11/28 09:07:19;;;;;;;13.20;2.38;;;5.30;99.90;;;;;;6147902;23;20029;-81
2021/11/28 09:09:46;;;;;;;12.52;2.10;;;5.30;99.90;;;;;;6148438;23;20026;-80
2021/11/28 09:12:13;;;;;;;8.80;1.48;;;5.40;99.90;;;;;;6147534;23;20084;-80
2021/11/28 09:14:41;;;;;;;8.88;2.20;;;5.40;99.90;;;;;;6147091;23;20064;-80
2021/11/28 09:17:08;;;;;;;13.45;2.45;;;5.50;99.90;;;;;;6146934;23;20478;-80
2021/11/28 09:22:06;;;;;;;18.90;7.35;;;5.60;99.90;;;;;;6147624;23;20496;-79
2021/11/28 09:24:36;;;;;;;17.63;6.63;;;5.60;99.90;;;;;;6147948;23;20084;-80
2021/11/28 09:27:13;;;;;;;10.07;3.00;;;5.60;99.90;;;;;;6148664;23;20021;-80
2021/11/28 09:29:45;;;;;;;14.73;3.28;;;5.70;99.90;;;;;;6121049;23;20476;-79
2021/11/28 09:32:15;;;;;;;11.05;2.50;;;5.70;99.90;;;;;;6124475;23;20033;-80
2021/11/28 09:34:42;;;;;;;16.33;3.28;;;5.70;99.90;;;;;;6148828;23;20095;-80
2021/11/28 09:37:11;;;;;;;8.07;1.67;;;5.70;99.90;;;;;;6147829;23;20017;-78
2021/11/28 09:39:42;;;;;;;7.43;2.20;;;5.80;99.90;;;;;;6122631;23;20018;-80
2021/11/28 09:42:12;;;;;;;11.73;2.15;;;5.80;99.90;;;;;;6146995;23;20049;-79
2021/11/28 09:44:41;;;;;;;14.70;2.67;;;5.90;99.90;;;;;;6147782;23;20072;-80
2021/11/28 09:47:10;;;;;;;16.48;4.45;;;5.90;99.90;;;;;;6147056;23;20074;-79
2021/11/28 09:49:44;;;;;;;8.07;3.13;;;5.90;99.90;;;;;;6147441;23;20025;-79
2021/11/28 09:52:18;;;;;;;10.32;1.67;;;5.90;99.90;;;;;;6120767;23;20021;-80
2021/11/28 09:54:46;;;;;;;10.38;1.23;;;5.90;99.90;;;;;;6122186;23;20503;-79
2021/11/28 09:57:16;;;;;;;13.68;1.50;;;5.90;99.90;;;;;;6146695;23;20049;-79
2021/11/28 09:59:44;;;;;;;7.45;1.10;;;5.90;99.90;;;;;;6147695;23;20397;-78
2021/11/28 10:02:19;;;;;;;10.52;1.00;;;5.90;99.90;;;;;;6146401;23;20423;-80
2021/11/28 10:04:46;;;;;;;7.57;1.17;;;6.00;99.90;;;;;;6148150;23;20029;-80
2021/11/28 10:07:15;;;;;;;6.13;1.05;;;6.10;99.90;;;;;;6121142;23;20092;-80
2021/11/28 10:09:44;;;;;;;5.32;0.60;;;6.10;99.90;;;;;;6148001;23;20021;-80
2021/11/28 10:12:15;;;;;;;6.15;1.00;;;6.10;99.90;;;;;;6147416;23;20022;-81
2021/11/28 10:14:46;;;;;;;4.50;1.20;;;6.10;99.90;;;;;;6146851;23;20076;-79
2021/11/28 10:17:18;;;;;;;4.13;0.80;;;6.10;99.90;;;;;;6146416;23;20022;-82
2021/11/28 10:19:45;;;;;;;6.63;0.70;;;6.20;99.90;;;;;;6122054;23;20464;-82
2021/11/28 10:22:12;;;;;;;3.92;0.63;;;6.10;99.90;;;;;;6146785;23;20030;-82
2021/11/28 10:25:02;;;;;;;5.18;1.40;;;6.20;99.90;;;;;;6149292;23;20029;-80
2021/11/28 10:27:42;;;;;;;5.05;0.65;;;6.20;99.90;;;;;;6148789;23;20014;-80
2021/11/28 10:30:18;;;;;;;8.05;0.88;;;6.20;99.90;;;;;;6148999;23;20029;-81
2021/11/28 10:32:50;;;;;;;5.50;1.20;;;6.10;99.90;;;;;;6149470;23;20520;-82
2021/11/28 10:35:18;;;;;;;7.05;0.90;;;6.20;99.90;;;;;;6148119;23;20026;-80
2021/11/28 10:37:51;;;;;;;9.20;2.88;;;6.20;99.90;;;;;;6149596;23;20420;-81
2021/11/28 10:40:24;;;;;;;15.65;5.40;;;6.20;99.90;;;;;;6123366;23;20091;-81
2021/11/28 10:43:07;;;;;;;3.65;0.93;;;6.20;99.90;;;;;;6149070;23;20092;-79
2021/11/28 10:45:49;;;;;;;43.42;15.57;;;6.20;99.90;;;;;;6149316;23;20017;-80
2021/11/28 10:48:24;;;;;;;12.75;5.50;;;6.20;99.90;;;;;;6148896;23;20033;-81
2021/11/28 10:50:53;;;;;;;9.48;1.60;;;6.20;99.90;;;;;;6149375;23;20097;-81
2021/11/28 10:53:21;;;;;;;;;;;6.10;99.90;;;;;;6148488;23;20014;-81
2021/11/28 10:55:49;;;;;;;12.40;3.17;;;6.10;99.90;;;;;;6123872;23;19917;-80
2021/11/28 10:58:25;;;;;;;22.65;10.75;;;6.10;99.90;;;;;;6148953;23;20075;-82
2021/11/28 11:00:52;;;;;;;18.58;10.43;;;6.10;99.90;;;;;;6147323;23;20022;-81
2021/11/28 11:03:19;;;;;;;6.30;0.82;;;6.10;99.90;;;;;;6149158;23;20037;-81
2021/11/28 11:05:52;;;;;;;9.95;1.48;;;6.10;99.90;;;;;;6149485;23;20094;-82
2021/11/28 11:08:26;;;;;;;4.95;0.85;;;6.20;99.90;;;;;;6148728;23;20025;-80
2021/11/28 11:11:08;;;;;;;7.28;1.75;;;6.20;99.90;;;;;;6123136;23;20013;-82
2021/11/28 11:14:00;;;;;;;9.68;1.35;;;6.20;99.90;;;;;;6149065;23;20020;-82
2021/11/28 11:16:45;;;;;;;12.85;2.10;;;6.20;99.90;;;;;;6138659;23;20061;-80
2021/11/28 11:19:36;;;;;;;20.25;6.20;;;6.30;99.90;;;;;;6148333;23;20034;-80
2021/11/28 11:22:03;;;;;;;9.65;2.88;;;6.30;99.90;;;;;;6138149;23;20017;-82
2021/11/28 11:24:36;;;;;;;18.10;7.35;;;6.30;99.90;;;;;;6148859;23;20495;-82
2021/11/28 11:27:11;;;;;;;15.25;6.18;;;6.30;99.90;;;;;;6149359;23;20334;-82
2021/11/28 11:29:40;;;;;;;4.47;1.33;;;6.30;99.90;;;;;;6148681;23;20091;-82
2021/11/28 11:32:12;;;;;;;;;;;6.30;99.90;;;;;;6149439;23;20048;-83
2021/11/28 11:34:46;;;;;;;4.75;1.80;;;6.30;99.90;;;;;;6149270;23;19920;-81
2021/11/28 11:37:15;;;;;;;6.88;1.25;;;6.30;99.90;;;;;;6122844;23;20423;-82
2021/11/28 11:39:45;;;;;;;6.55;0.90;;;6.30;99.90;;;;;;6123231;23;20021;-81
2021/11/28 11:42:15;;;;;;;4.93;0.90;;;6.30;99.90;;;;;;6148004;23;20353;-82
2021/11/28 11:44:44;;;;;;;3.80;1.25;;;6.30;99.90;;;;;;6122377;23;20480;-82
2021/11/28 11:47:17;;;;;;;5.95;1.08;;;6.30;99.90;;;;;;6121778;23;20025;-80
2021/11/28 11:49:44;;;;;;;6.53;0.90;;;6.30;99.90;;;;;;6122767;23;20088;-81
2021/11/28 11:52:12;;;;;;;7.10;2.10;;;6.30;99.90;;;;;;6147052;23;20689;-81
2021/11/28 11:55:00;;;;;;;15.68;8.35;;;6.30;99.90;;;;;;6147916;23;20047;-81
2021/11/28 11:57:38;;;;;;;9.35;2.33;;;6.30;99.90;;;;;;6145636;23;20076;-81
2021/11/28 12:00:06;;;;;;;4.88;1.17;;;6.30;99.90;;;;;;6147265;23;20531;-81
2021/11/28 12:02:56;;;;;;;6.03;1.00;;;6.30;99.90;;;;;;6126437;23;20021;-82
2021/11/28 12:05:26;;;;;;;8.15;1.77;;;6.30;99.90;;;;;;6147037;23;20472;-83
2021/11/28 12:07:53;;;;;;;9.60;2.95;;;6.30;99.90;;;;;;6121975;23;20017;-82
2021/11/28 12:10:39;;;;;;;4.70;1.23;;;6.40;99.90;;;;;;6148068;23;20017;-81
2021/11/28 12:13:30;;;;;;;20.33;5.40;;;6.40;99.90;;;;;;6147266;23;20022;-81
2021/11/28 12:16:03;;;;;;;5.78;0.80;;;6.40;99.90;;;;;;6148305;23;20025;-82
2021/11/28 12:18:34;;;;;;;17.52;8.00;;;6.40;99.90;;;;;;6122501;23;20025;-83
2021/11/28 12:21:12;;;;;;;7.55;1.90;;;6.40;99.90;;;;;;6149321;23;20085;-84
2021/11/28 12:23:54;;;;;;;5.72;1.35;;;6.40;99.90;;;;;;6123106;23;20103;-83
2021/11/28 12:26:30;;;;;;;14.38;7.72;;;6.50;99.90;;;;;;6148076;23;20865;-82
2021/11/28 12:29:15;;;;;;;4.85;1.10;;;6.50;99.90;;;;;;6123420;23;20040;-82
2021/11/28 12:31:46;;;;;;;8.55;1.50;;;6.50;99.90;;;;;;6148476;23;20029;-83
2021/11/28 12:34:16;;;;;;;4.75;0.88;;;6.50;99.90;;;;;;6148707;23;20076;-84
2021/11/28 12:36:55;;;;;;;9.55;1.63;;;6.50;99.90;;;;;;6150343;23;20022;-83
2021/11/28 12:39:23;;;;;;;11.05;4.10;;;6.60;99.90;;;;;;6124359;23;20029;-83
2021/11/28 12:42:10;;;;;;;;;;;6.60;99.90;;;;;;6150513;23;20018;-84
2021/11/28 12:44:49;;;;;;;7.55;1.33;;;6.60;99.90;;;;;;6148950;23;19920;-83
2021/11/28 12:47:15;;;;;;;7.00;1.13;;;6.60;99.90;;;;;;6148328;23;20032;-83
2021/11/28 12:49:51;;;;;;;9.05;2.90;;;6.60;99.90;;;;;;6123737;23;20017;-84
2021/11/28 12:52:39;;;;;;;6.72;1.63;;;6.70;99.90;;;;;;6147452;23;20025;-80
2021/11/28 12:55:19;;;;;;;7.60;2.67;;;6.60;99.90;;;;;;6148189;23;20029;-80
2021/11/28 12:57:55;;;;;;;8.55;1.30;;;6.70;99.90;;;;;;6146375;23;20093;-84
2021/11/28 13:00:23;;;;;;;7.40;1.42;;;6.70;99.90;;;;;;6103199;23;20030;-83
2021/11/28 13:03:00;;;;;;;6.13;1.25;;;6.60;99.90;;;;;;6124658;23;20025;-80
2021/11/28 13:05:27;;;;;;;12.30;4.38;;;6.70;99.90;;;;;;6122110;23;20392;-82
2021/11/28 13:08:00;;;;;;;5.53;1.50;;;6.70;99.90;;;;;;6122987;23;20026;-82
2021/11/28 13:10:38;;;;;;;7.22;1.30;;;6.70;99.90;;;;;;6147595;23;20021;-78
2021/11/28 13:13:16;;;;;;;7.17;1.43;;;6.70;99.90;;;;;;6148446;23;20033;-81
2021/11/28 13:15:54;;;;;;;2.70;0.80;;;6.70;99.90;;;;;;6148852;23;20018;-81
2021/11/28 13:18:30;;;;;;;6.40;1.13;;;6.60;99.90;;;;;;6122352;23;20021;-82
2021/11/28 13:21:04;;;;;;;3.47;1.10;;;6.60;99.90;;;;;;6122281;23;20506;-81
2021/11/28 13:23:32;;;;;;;6.85;0.90;;;6.70;99.90;;;;;;6147582;23;20092;-81
2021/11/28 13:25:59;;;;;;;6.93;1.80;;;6.60;99.90;;;;;;6148694;23;20025;-81
2021/11/28 13:28:34;;;;;;;5.50;0.82;;;6.70;99.90;;;;;;6148079;23;20021;-82
2021/11/28 13:31:14;;;;;;;7.53;3.70;;;6.70;99.90;;;;;;6148382;23;20072;-82
2021/11/28 13:33:59;;;;;;;5.25;0.80;;;6.70;99.90;;;;;;6148962;23;20029;-79
2021/11/28 13:36:46;;;;;;;4.72;0.90;;;6.60;99.90;;;;;;6148011;23;20022;-82
2021/11/28 13:39:19;;;;;;;7.22;1.33;;;6.60;99.90;;;;;;6146690;23;20025;-82
2021/11/28 13:41:50;;;;;;;4.43;1.38;;;6.70;99.90;;;;;;6147007;23;20736;-79
2021/11/28 13:44:23;;;;;;;9.52;4.63;;;6.60;99.90;;;;;;6103263;23;20025;-86
2021/11/28 13:47:00;;;;;;;5.45;1.23;;;6.60;99.90;;;;;;6125934;23;20704;-85
2021/11/28 13:49:46;;;;;;;;;;;;;;;;;;;;;
2021/11/28 13:52:17;;;;;;;5.25;0.98;;;6.70;99.90;;;;;;6113341;23;20126;-83
2021/11/28 13:54:46;;;;;;;3.67;0.82;;;6.70;99.90;;;;;;6124624;23;20629;-83
2021/11/28 13:57:25;;;;;;;3.00;0.70;;;6.70;99.90;;;;;;6106597;23;20061;-84
2021/11/28 14:00:09;;;;;;;;;;;6.70;99.90;;;;;;6080820;23;20022;-84
2021/11/28 14:03:28;;;;;;;6.13;1.55;;;6.70;99.90;;;;;;6090717;23;19999;-85
2021/11/28 14:10:17;;;;;;;5.05;0.98;;;6.80;99.90;;;;;;5017731;28;20438;-84
2021/11/28 14:12:52;;;;;;;4.90;1.67;;;6.80;99.90;;;;;;5008646;28;20041;-86
2021/11/28 14:15:22;;;;;;;6.88;1.42;;;6.90;99.90;;;;;;5005765;28;20129;-85
2021/11/28 14:18:08;;;;;;;8.07;1.42;;;6.90;99.90;;;;;;5020427;28;20510;-86
2021/11/28 14:20:49;;;;;;;3.90;0.75;;;6.90;99.90;;;;;;4989585;28;20041;-86
2021/11/28 14:23:18;;;;;;;4.70;1.35;;;6.90;99.90;;;;;;4977955;28;20050;-86
2021/11/28 14:25:48;;;;;;;4.40;1.10;;;6.90;99.90;;;;;;5002925;28;20149;-86
2021/11/28 14:28:34;;;;;;;7.60;1.55;;;6.90;99.90;;;;;;5006218;28;20046;-85
2021/11/28 14:31:19;;;;;;;3.75;1.00;;;6.90;99.90;;;;;;5013502;28;20054;-87
2021/11/28 14:33:51;;;;;;;4.10;1.00;;;6.90;99.90;;;;;;4998648;28;20050;-87
2021/11/28 14:36:27;;;;;;;7.82;1.10;;;6.90;99.90;;;;;;5015106;28;20053;-85
2021/11/28 14:39:13;;;;;;;5.45;1.20;;;6.80;99.90;;;;;;5002242;28;20054;-83
2021/11/28 14:41:42;;;;;;;7.20;1.08;;;6.80;99.90;;;;;;5013238;28;20053;-84
2021/11/28 14:44:17;;;;;;;5.05;1.10;;;6.90;99.90;;;;;;5010900;28;20049;-83
2021/11/28 14:46:45;;;;;;;4.82;1.15;;;6.90;99.90;;;;;;5014320;28;20046;-83
2021/11/28 14:49:21;;;;;;;;;;;6.90;99.90;;;;;;5009945;28;20403;-83
2021/11/28 14:51:55;;;;;;;7.32;1.08;;;6.80;99.90;;;;;;5014592;28;19940;-85
2021/11/28 14:54:31;;;;;;;5.03;1.20;;;6.80;99.90;;;;;;5014059;28;20517;-83
2021/11/28 14:57:09;;;;;;;9.35;1.40;;;6.90;99.90;;;;;;5001862;28;20050;-83
2021/11/28 14:59:56;;;;;;;5.13;1.02;;;6.90;99.90;;;;;;5000534;28;20108;-83
2021/11/28 15:02:29;;;;;;;5.88;1.38;;;6.90;99.90;;;;;;4997986;28;20049;-80
2021/11/28 15:05:06;;;;;;;4.45;1.00;;;7.00;99.90;;;;;;5000485;28;20046;-80
2021/11/28 15:07:36;;;;;;;3.13;1.10;;;7.00;99.90;;;;;;4992719;28;20410;-82
2021/11/28 15:10:11;;;;;;;6.25;1.30;;;7.00;99.90;;;;;;5000631;28;20042;-82
2021/11/28 15:12:41;;;;;;;4.55;1.77;;;7.00;99.90;;;;;;4999638;28;20038;-83
2021/11/28 15:15:15;;;;;;;6.07;1.08;;;7.00;99.90;;;;;;4999658;28;20054;-81
2021/11/28 15:17:43;;;;;;;4.00;1.02;;;7.10;99.90;;;;;;5000599;28;20046;-80
2021/11/28 15:20:12;;;;;;;4.40;0.93;;;7.00;99.90;;;;;;4997912;28;20069;-80
2021/11/28 15:22:43;;;;;;;5.75;1.23;;;7.00;99.90;;;;;;4986464;28;21358;-80
2021/11/28 15:25:13;;;;;;;5.18;1.17;;;7.00;99.90;;;;;;4993040;28;20049;-81
2021/11/28 15:27:40;;;;;;;6.45;1.30;;;7.00;99.90;;;;;;5000565;28;20057;-80
2021/11/28 15:30:11;;;;;;;6.93;1.60;;;7.00;99.90;;;;;;4993384;28;20050;-81
2021/11/28 15:32:39;;;;;;;5.65;1.30;;;7.00;99.90;;;;;;4999941;28;20399;-81
2021/11/28 15:35:09;;;;;;;5.00;1.40;;;7.00;99.90;;;;;;4992828;28;20054;-82
2021/11/28 15:37:41;;;;;;;5.80;1.15;;;7.00;99.90;;;;;;4999511;28;20058;-81
2021/11/28 15:40:10;;;;;;;9.57;1.50;;;7.00;99.90;;;;;;4987851;28;20089;-81
2021/11/28 15:42:38;;;;;;;7.72;1.40;;;6.90;99.90;;;;;;4979821;28;20136;-81
2021/11/28 15:45:06;;;;;;;5.17;1.50;;;6.90;99.90;;;;;;4987606;28;20050;-83
2021/11/28 15:47:33;;;;;;;6.28;1.15;;;6.90;99.90;;;;;;4986827;28;20603;-82
2021/11/28 15:50:00;;;;;;;9.43;2.65;;;6.90;99.90;;;;;;4984377;28;20050;-81
2021/11/28 15:52:27;;;;;;;7.28;2.10;;;6.90;99.90;;;;;;4985797;28;20061;-82
2021/11/28 15:54:54;;;;;;;7.57;2.13;;;6.90;99.90;;;;;;4984701;28;20061;-82
2021/11/28 15:57:22;;;;;;;8.05;1.85;;;6.90;99.90;;;;;;4985806;28;20043;-79
2021/11/28 15:59:49;;;;;;;8.88;1.80;;;6.90;99.90;;;;;;4985543;28;20482;-82
2021/11/28 16:02:16;;;;;;;9.10;2.10;;;6.90;99.90;;;;;;4984716;28;20059;-83
2021/11/28 16:04:43;;;;;;;10.18;2.30;;;6.90;99.90;;;;;;4984506;28;20747;-82
2021/11/28 16:07:10;;;;;;;9.63;1.92;;;6.90;99.90;;;;;;4985923;28;20043;-83
2021/11/28 16:09:37;;;;;;;6.65;1.58;;;6.90;99.90;;;;;;4985208;28;20412;-80
2021/11/28 16:12:05;;;;;;;10.07;1.88;;;6.80;99.90;;;;;;4985480;28;20038;-83
2021/11/28 16:14:33;;;;;;;5.95;1.80;;;6.80;99.90;;;;;;4985600;28;20112;-82
2021/11/28 16:17:00;;;;;;;7.80;1.45;;;6.80;99.90;;;;;;4985829;28;20113;-82
2021/11/28 16:19:27;;;;;;;15.65;5.13;;;6.70;99.90;;;;;;4983380;28;20100;-82
2021/11/28 16:21:53;;;;;;;19.13;6.13;;;6.70;99.90;;;;;;4985623;28;20129;-82
2021/11/28 16:24:20;;;;;;;8.25;2.83;;;6.70;99.90;;;;;;4986134;28;20100;-83
2021/11/28 16:26:47;;;;;;;10.43;1.70;;;6.60;99.90;;;;;;4986019;28;20096;-83
2021/11/28 16:29:14;;;;;;;8.55;1.63;;;6.60;99.90;;;;;;4986308;28;20046;-82
2021/11/28 16:31:42;;;;;;;6.13;1.55;;;6.60;99.90;;;;;;4985055;28;20058;-81
2021/11/28 16:34:09;;;;;;;7.15;1.90;;;6.60;99.90;;;;;;4985552;28;20042;-82
2021/11/28 16:36:36;;;;;;;7.85;2.13;;;6.60;99.90;;;;;;4986632;28;20804;-82
2021/11/28 16:39:07;;;;;;;8.57;1.88;;;6.50;99.90;;;;;;4987284;28;20042;-81
2021/11/28 16:41:35;;;;;;;6.90;2.60;;;6.60;99.90;;;;;;4984369;28;20112;-82
2021/11/28 16:44:06;;;;;;;7.57;2.17;;;6.60;99.90;;;;;;4983735;28;20057;-82
2021/11/28 16:46:32;;;;;;;6.97;2.22;;;6.50;99.90;;;;;;4986693;28;20054;-82
2021/11/28 16:49:00;;;;;;;5.57;1.73;;;6.50;99.90;;;;;;4986201;28;20057;-82
2021/11/28 16:51:27;;;;;;;7.07;2.45;;;6.50;99.90;;;;;;4986649;28;20154;-82
2021/11/28 16:53:54;;;;;;;17.85;3.90;;;6.50;99.90;;;;;;4989331;28;20051;-83
2021/11/28 16:56:24;;;;;;;11.77;4.30;;;6.50;99.90;;;;;;4987174;28;20523;-83
2021/11/28 16:58:52;;;;;;;9.85;2.70;;;6.50;99.90;;;;;;4987298;28;20474;-83
2021/11/28 17:01:19;;;;;;;11.02;2.55;;;6.40;99.90;;;;;;4987205;28;20057;-81
2021/11/28 17:03:50;;;;;;;9.60;2.60;;;6.40;99.90;;;;;;4988134;28;20118;-82
2021/11/28 17:06:17;;;;;;;15.13;4.10;;;6.40;99.90;;;;;;4987477;28;20742;-81
2021/11/28 17:08:44;;;;;;;13.57;4.35;;;6.40;99.90;;;;;;4987482;28;20047;-84
2021/11/28 17:11:11;;;;;;;9.40;4.10;;;6.40;99.90;;;;;;4983927;28;20050;-82
2021/11/28 17:13:38;;;;;;;92.07;26.20;;;6.40;99.90;;;;;;4987119;28;20046;-85
2021/11/28 17:16:05;;;;;;;10.90;3.75;;;6.40;99.90;;;;;;4987663;28;20511;-83
2021/11/28 17:18:32;;;;;;;6.82;3.80;;;6.40;99.90;;;;;;4969056;28;20096;-83
2021/11/28 17:20:59;;;;;;;6.18;3.45;;;6.40;99.90;;;;;;4987003;28;20054;-83
2021/11/28 17:23:28;;;;;;;6.33;2.50;;;6.40;99.90;;;;;;4987248;28;20495;-82
2021/11/28 17:25:55;;;;;;;20.48;4.72;;;6.40;99.90;;;;;;4987679;28;20954;-84
2021/11/28 17:28:24;;;;;;;12.40;3.40;;;6.40;99.90;;;;;;4987130;28;20054;-84
2021/11/28 17:30:54;;;;;;;8.63;3.17;;;6.40;99.90;;;;;;4986615;28;20450;-83
2021/11/28 17:33:23;;;;;;;10.13;2.60;;;6.40;99.90;;;;;;4987252;28;20112;-84
2021/11/28 17:35:50;;;;;;;8.80;2.35;;;6.40;99.90;;;;;;4988455;28;20038;-84
2021/11/28 17:38:18;;;;;;;11.25;2.83;;;6.30;99.90;;;;;;4985461;28;20051;-84
2021/11/28 17:40:45;;;;;;;6.20;2.53;;;6.30;99.90;;;;;;4986932;28;20125;-83
2021/11/28 17:43:15;;;;;;;5.78;2.22;;;6.30;99.90;;;;;;4986581;28;20458;-82
2021/11/28 17:45:43;;;;;;;9.43;2.58;;;6.20;99.90;;;;;;4986768;28;20050;-83
2021/11/28 17:48:10;;;;;;;10.50;4.88;;;6.20;99.90;;;;;;4987436;28;20053;-82
2021/11/28 17:50:37;;;;;;;34.05;17.38;;;6.20;99.90;;;;;;4984742;28;20050;-84
2021/11/28 17:53:04;;;;;;;27.33;10.63;;;6.20;99.90;;;;;;4986412;28;20478;-84
2021/11/28 17:55:31;;;;;;;13.15;5.22;;;6.10;99.90;;;;;;4987720;28;20046;-84
2021/11/28 17:57:59;;;;;;;19.70;9.70;;;6.10;99.90;;;;;;4985855;28;20132;-82
2021/11/28 18:00:25;;;;;;;11.45;5.63;;;6.10;99.90;;;;;;4987164;28;20058;-83
2021/11/28 18:02:53;;;;;;;11.10;3.03;;;6.10;99.90;;;;;;4987334;28;20045;-84
2021/11/28 18:05:20;;;;;;;14.35;3.10;;;6.00;99.90;;;;;;4982715;28;20486;-82
2021/11/28 18:07:51;;;;;;;9.27;2.90;;;6.00;99.90;;;;;;4981759;28;20121;-82
2021/11/28 18:10:18;;;;;;;8.10;3.30;;;6.00;99.90;;;;;;4985911;28;20050;-82
2021/11/28 18:12:45;;;;;;;7.38;3.50;;;6.00;99.90;;;;;;4981010;28;20047;-82
2021/11/28 18:15:12;;;;;;;16.73;7.15;;;6.00;99.90;;;;;;4982588;28;20054;-83
2021/11/28 18:17:39;;;;;;;10.10;4.18;;;5.90;99.90;;;;;;4983021;28;20054;-82
2021/11/28 18:20:07;;;;;;;50.83;24.15;;;5.90;99.90;;;;;;4982546;28;20050;-82
2021/11/28 18:22:35;;;;;;;31.38;13.13;;;5.90;99.90;;;;;;4982263;28;20691;-82
2021/11/28 18:25:03;;;;;;;179.23;52.72;;;5.90;99.90;;;;;;4984642;28;20042;-82
2021/11/28 18:27:30;;;;;;;47.95;14.10;;;5.90;99.90;;;;;;4984163;28;20074;-80
2021/11/28 18:29:57;;;;;;;47.13;20.48;;;5.80;99.90;;;;;;4985866;28;20073;-80
2021/11/28 18:32:24;;;;;;;15.35;4.32;;;5.80;99.90;;;;;;4983954;28;20096;-80
2021/11/28 18:34:51;;;;;;;12.73;4.40;;;5.80;99.90;;;;;;4984939;28;20430;-83
2021/11/28 18:37:18;;;;;;;12.70;4.13;;;5.80;99.90;;;;;;4984063;28;20054;-82
2021/11/28 18:39:45;;;;;;;43.65;18.33;;;5.80;99.90;;;;;;4983710;28;20100;-81
2021/11/28 18:42:15;;;;;;;30.25;15.55;;;5.80;99.90;;;;;;4984981;28;20043;-82
2021/11/28 18:44:42;;;;;;;89.65;41.47;;;5.80;99.90;;;;;;4976676;28;20066;-81
2021/11/28 18:47:09;;;;;;;18.80;8.43;;;5.80;99.90;;;;;;4982196;28;20054;-81
2021/11/28 18:49:41;;;;;;;126.78;42.15;;;5.80;99.90;;;;;;4970872;28;20060;-81
2021/11/28 18:52:08;;;;;;;172.43;50.75;;;5.80;99.90;;;;;;4980014;28;20104;-81
2021/11/28 18:54:36;;;;;;;102.10;35.55;;;5.80;99.90;;;;;;4981569;28;20082;-81
2021/11/28 18:57:04;;;;;;;73.00;21.27;;;5.80;99.90;;;;;;4982953;28;20057;-83
2021/11/28 18:59:31;;;;;;;30.73;13.10;;;5.70;99.90;;;;;;4984942;28;20046;-83
2021/11/28 19:01:58;;;;;;;42.67;18.77;;;5.80;99.90;;;;;;4987407;28;20514;-81
2021/11/28 19:04:25;;;;;;;12.68;5.55;;;5.70;99.90;;;;;;4986983;28;20055;-83
2021/11/28 19:06:52;;;;;;;212.57;49.83;;;5.70;99.90;;;;;;4987398;28;20038;-83
2021/11/28 19:09:20;;;;;;;281.63;64.18;;;5.70;99.90;;;;;;4985373;28;20046;-83
2021/11/28 19:11:48;;;;;;;22.90;8.80;;;5.70;99.90;;;;;;4988268;28;20479;-82
2021/11/28 19:14:15;;;;;;;24.75;9.52;;;5.60;99.90;;;;;;4987292;28;20074;-85
2021/11/28 19:16:42;;;;;;;198.05;51.42;;;5.60;99.90;;;;;;4991077;28;20050;-84
2021/11/28 19:19:09;;;;;;;72.95;21.35;;;5.60;99.90;;;;;;4990553;28;20054;-85
2021/11/28 19:21:36;;;;;;;122.65;38.33;;;5.60;99.90;;;;;;4991036;28;20085;-85
2021/11/28 19:24:04;;;;;;;155.85;46.03;;;5.60;99.90;;;;;;4990342;28;20050;-84
2021/11/28 19:26:31;;;;;;;85.97;29.00;;;5.50;99.90;;;;;;4987656;28;20045;-83
2021/11/28 19:28:58;;;;;;;68.30;22.05;;;5.50;99.90;;;;;;4989412;28;20582;-83
2021/11/28 19:31:27;;;;;;;91.68;28.45;;;5.40;99.90;;;;;;4986886;28;20534;-81
2021/11/28 19:33:55;;;;;;;19.23;11.57;;;5.50;99.90;;;;;;4989194;28;20157;-83
2021/11/28 19:36:24;;;;;;;30.80;13.73;;;5.40;99.90;;;;;;4987743;28;20050;-82
2021/11/28 19:38:53;;;;;;;17.23;9.85;;;5.40;99.90;;;;;;4989518;28;20830;-83
2021/11/28 19:41:21;;;;;;;;;;;5.30;99.90;;;;;;4989864;28;20132;-83
2021/11/28 19:43:48;;;;;;;18.35;10.93;;;5.30;99.90;;;;;;4985946;28;20003;-83
2021/11/28 19:46:15;;;;;;;18.50;10.88;;;5.20;99.90;;;;;;4988018;28;20049;-83
2021/11/28 19:48:43;;;;;;;25.80;12.15;;;5.20;99.90;;;;;;4984732;28;20069;-82
2021/11/28 19:51:09;;;;;;;40.13;15.38;;;5.20;99.90;;;;;;4988302;28;20046;-84
2021/11/28 19:53:37;;;;;;;33.30;15.32;;;5.20;99.90;;;;;;4987393;28;20515;-83
2021/11/28 19:56:05;;;;;;;46.85;15.50;;;5.20;99.90;;;;;;4988213;28;20057;-83
2021/11/28 19:58:32;;;;;;;26.45;15.05;;;5.30;99.90;;;;;;4989306;28;20046;-83
2021/11/28 20:00:59;;;;;;;23.23;16.27;;;5.20;99.90;;;;;;4987758;28;20046;-82
2021/11/28 20:03:26;;;;;;;109.40;46.47;;;5.20;99.90;;;;;;4987054;28;20045;-83
2021/11/28 20:05:53;;;;;;;66.05;28.65;;;5.20;99.90;;;;;;4989658;28;20042;-81
2021/11/28 20:08:20;;;;;;;205.10;64.38;;;5.20;99.90;;;;;;4987527;28;20073;-83
2021/11/28 20:10:47;;;;;;;60.38;22.02;;;5.20;99.90;;;;;;4988354;28;20057;-82
2021/11/28 20:13:14;;;;;;;23.52;11.35;;;5.20;99.90;;;;;;4988364;28;20053;-83
2021/11/28 20:15:41;;;;;;;18.70;9.80;;;5.30;99.90;;;;;;4988902;28;20109;-81
2021/11/28 20:18:08;;;;;;;12.77;9.27;;;5.30;99.90;;;;;;4989049;28;20109;-82